createdAt,value
2023-04-11T00:00:59.421Z,100.00
2023-04-11T00:02:17.984Z,100.00
2023-04-11T00:03:29.330Z,100.00
2023-04-11T00:04:39.936Z,100.00
2023-04-11T00:06:04.360Z,100.00
2023-04-11T00:07:41.414Z,100.00
2023-04-11T00:08:49.474Z,100.00
2023-04-11T00:10:29.726Z,100.00
2023-04-11T00:11:42.061Z,100.00
2023-04-11T00:12:49.140Z,100.00
2023-04-11T00:13:57.789Z,100.00
2023-04-11T00:15:12.332Z,100.00
2023-04-11T00:16:25.140Z,100.00
2023-04-11T00:17:33.555Z,100.00
2023-04-11T00:19:27.480Z,100.00
2023-04-11T00:20:53.289Z,100.00
2023-04-11T00:24:17.159Z,100.00
2023-04-11T00:25:39.650Z,100.00
2023-04-11T00:26:50.091Z,100.00
2023-04-11T00:28:49.479Z,100.00
2023-04-11T00:30:14.262Z,100.00
2023-04-11T00:31:41.549Z,100.00
2023-04-11T00:32:48.816Z,100.00
2023-04-11T00:34:21.848Z,100.00
2023-04-11T00:35:30.892Z,100.00
2023-04-11T00:36:42.556Z,100.00
2023-04-11T00:37:56.190Z,100.00
2023-04-11T00:39:13.791Z,100.00
2023-04-11T00:40:24.527Z,100.00
2023-04-11T00:41:37.572Z,100.00
2023-04-11T00:42:49.978Z,100.00
2023-04-11T00:44:00.836Z,100.00
2023-04-11T00:45:18.694Z,100.00
2023-04-11T00:46:22.812Z,100.00
2023-04-11T00:47:30.436Z,100.00
2023-04-11T00:48:37.272Z,100.00
2023-04-11T00:49:43.586Z,100.00
2023-04-11T00:50:49.232Z,100.00
2023-04-11T00:52:05.095Z,100.00
2023-04-11T00:53:13.426Z,100.00
2023-04-11T00:54:22.664Z,100.00
2023-04-11T00:55:33.288Z,100.00
2023-04-11T00:56:55.945Z,100.00
2023-04-11T00:58:01.894Z,100.00
2023-04-11T00:59:08.088Z,100.00
2023-04-11T01:00:16.762Z,100.00
2023-04-11T01:01:25.202Z,100.00
2023-04-11T01:02:29.961Z,100.00
2023-04-11T01:03:38.345Z,100.00
2023-04-11T01:04:43.476Z,100.00
2023-04-11T01:05:52.579Z,100.00
2023-04-11T01:07:04.317Z,100.00
2023-04-11T01:08:09.621Z,100.00
2023-04-11T01:09:22.805Z,100.00
2023-04-11T01:10:32.316Z,100.00
2023-04-11T01:11:37.628Z,100.00
2023-04-11T01:12:48.258Z,100.00
2023-04-11T01:13:56.865Z,100.00
2023-04-11T01:15:05.278Z,100.00
2023-04-11T01:16:16.621Z,100.00
2023-04-11T01:17:24.393Z,100.00
2023-04-11T01:18:29.951Z,100.00
2023-04-11T01:19:39.572Z,100.00
2023-04-11T01:20:49.594Z,100.00
2023-04-11T01:22:02.939Z,100.00
2023-04-11T01:23:14.279Z,100.00
2023-04-11T01:24:18.359Z,100.00
2023-04-11T01:25:25.213Z,100.00
2023-04-11T01:26:31.830Z,100.00
2023-04-11T01:27:38.466Z,100.00
2023-04-11T01:28:46.445Z,100.00
2023-04-11T01:29:52.485Z,100.00
2023-04-11T01:30:58.228Z,100.00
2023-04-11T01:32:03.242Z,100.00
2023-04-11T01:33:11.810Z,100.00
2023-04-11T01:34:19.709Z,100.00
2023-04-11T01:35:25.037Z,100.00
2023-04-11T01:36:31.726Z,100.00
2023-04-11T01:37:36.822Z,100.00
2023-04-11T01:38:41.032Z,100.00
2023-04-11T01:39:44.974Z,100.00
2023-04-11T01:40:49.117Z,100.00
2023-04-11T01:41:57.043Z,100.00
2023-04-11T01:43:03.308Z,100.00
2023-04-11T01:44:08.613Z,100.00
2023-04-11T01:45:13.479Z,100.00
2023-04-11T01:46:18.045Z,100.00
2023-04-11T01:47:22.306Z,100.00
2023-04-11T01:48:26.903Z,100.00
2023-04-11T01:49:31.168Z,100.00
2023-04-11T01:50:35.110Z,100.00
2023-04-11T01:51:38.921Z,100.00
2023-04-11T01:52:42.492Z,100.00
2023-04-11T01:53:47.749Z,100.00
2023-04-11T01:54:54.281Z,100.00
2023-04-11T01:55:58.274Z,100.00
2023-04-11T01:57:02.450Z,100.00
2023-04-11T01:58:06.445Z,100.00
2023-04-11T01:59:10.480Z,100.00
2023-04-11T02:00:15.119Z,100.00
2023-04-11T02:01:22.816Z,100.00
2023-04-11T02:02:26.947Z,100.00
2023-04-11T02:03:31.938Z,100.00
2023-04-11T02:04:36.233Z,100.00
2023-04-11T02:05:40.590Z,100.00
2023-04-11T02:06:45.107Z,100.00
2023-04-11T02:07:49.211Z,100.00
2023-04-11T02:08:53.607Z,100.00
2023-04-11T02:09:59.048Z,100.00
2023-04-11T02:11:03.317Z,100.00
2023-04-11T02:12:11.372Z,100.00
2023-04-11T02:13:15.644Z,100.00
2023-04-11T02:14:20.918Z,100.00
2023-04-11T02:15:27.288Z,100.00
2023-04-11T02:16:31.753Z,100.00
2023-04-11T02:17:37.206Z,100.00
2023-04-11T02:18:44.251Z,100.00
2023-04-11T02:19:48.154Z,100.00
2023-04-11T02:20:52.885Z,100.00
2023-04-11T02:21:56.659Z,100.00
2023-04-11T02:23:04.596Z,100.00
2023-04-11T02:24:08.614Z,100.00
2023-04-11T02:25:12.243Z,100.00
2023-04-11T02:26:16.354Z,100.00
2023-04-11T02:27:20.856Z,100.00
2023-04-11T02:28:24.882Z,100.00
2023-04-11T02:29:31.211Z,100.00
2023-04-11T02:30:35.617Z,100.00
2023-04-11T02:31:40.632Z,100.00
2023-04-11T02:32:52.275Z,100.00
2023-04-11T02:33:56.343Z,100.00
2023-04-11T02:35:00.895Z,100.00
2023-04-11T02:36:05.740Z,100.00
2023-04-11T02:37:09.735Z,100.00
2023-04-11T02:38:14.000Z,100.00
2023-04-11T02:39:19.791Z,100.00
2023-04-11T02:40:23.642Z,100.00
2023-04-11T02:41:27.668Z,100.00
2023-04-11T02:42:31.740Z,100.00
2023-04-11T02:43:35.661Z,100.00
2023-04-11T02:44:39.513Z,100.00
2023-04-11T02:45:52.455Z,100.00
2023-04-11T02:47:00.320Z,100.00
2023-04-11T02:48:05.890Z,100.00
2023-04-11T02:49:09.968Z,100.00
2023-04-11T02:50:13.475Z,100.00
2023-04-11T02:51:17.618Z,100.00
2023-04-11T02:52:22.587Z,100.00
2023-04-11T02:53:27.307Z,100.00
2023-04-11T02:54:31.236Z,100.00
2023-04-11T02:55:35.256Z,100.00
2023-04-11T02:56:39.113Z,100.00
2023-04-11T02:57:42.954Z,100.00
2023-04-11T02:58:47.099Z,100.00
2023-04-11T02:59:51.062Z,100.00
2023-04-11T03:00:58.055Z,100.00
2023-04-11T03:02:02.361Z,100.00
2023-04-11T03:03:06.737Z,100.00
2023-04-11T03:04:11.153Z,100.00
2023-04-11T03:05:15.884Z,100.00
2023-04-11T03:06:19.556Z,100.00
2023-04-11T03:07:23.703Z,100.00
2023-04-11T03:08:27.927Z,100.00
2023-04-11T03:09:32.692Z,100.00
2023-04-11T03:10:36.975Z,100.00
2023-04-11T03:11:41.410Z,100.00
2023-04-11T03:12:45.506Z,100.00
2023-04-11T03:13:49.553Z,100.00
2023-04-11T03:14:54.381Z,100.00
2023-04-11T03:15:58.355Z,100.00
2023-04-11T03:17:02.530Z,100.00
2023-04-11T03:18:06.656Z,100.00
2023-04-11T03:19:10.759Z,100.00
2023-04-11T03:20:19.949Z,100.00
2023-04-11T03:21:23.882Z,100.00
2023-04-11T03:22:27.556Z,100.00
2023-04-11T03:23:32.230Z,100.00
2023-04-11T03:24:36.095Z,100.00
2023-04-11T03:25:40.793Z,100.00
2023-04-11T03:26:44.935Z,100.00
2023-04-11T03:27:49.489Z,100.00
2023-04-11T03:28:55.064Z,100.00
2023-04-11T03:29:59.418Z,100.00
2023-04-11T03:31:04.571Z,100.00
2023-04-11T03:32:08.792Z,100.00
2023-04-11T03:33:13.597Z,100.00
2023-04-11T03:34:18.609Z,100.00
2023-04-11T03:35:22.680Z,100.00
2023-04-11T03:36:29.679Z,100.00
2023-04-11T03:37:33.973Z,100.00
2023-04-11T03:38:37.816Z,100.00
2023-04-11T03:39:41.649Z,100.00
2023-04-11T03:40:45.943Z,100.00
2023-04-11T03:41:50.093Z,100.00
2023-04-11T03:42:54.013Z,100.00
2023-04-11T03:43:58.267Z,100.00
2023-04-11T03:45:02.643Z,100.00
2023-04-11T03:46:06.910Z,100.00
2023-04-11T03:47:11.515Z,100.00
2023-04-11T03:48:18.198Z,100.00
2023-04-11T03:49:24.277Z,100.00
2023-04-11T03:50:28.497Z,100.00
2023-04-11T03:51:32.833Z,100.00
2023-04-11T03:52:36.992Z,100.00
2023-04-11T03:53:41.437Z,100.00
2023-04-11T03:54:47.832Z,100.00
2023-04-11T03:55:53.617Z,100.00
2023-04-11T03:56:58.392Z,100.00
2023-04-11T03:58:02.530Z,100.00
2023-04-11T03:59:07.091Z,100.00
2023-04-11T04:00:12.891Z,100.00
2023-04-11T04:01:16.816Z,100.00
2023-04-11T04:02:21.191Z,100.00
2023-04-11T04:03:25.809Z,100.00
2023-04-11T04:04:32.724Z,100.00
2023-04-11T04:05:37.534Z,100.00
2023-04-11T04:06:43.216Z,100.00
2023-04-11T04:07:46.935Z,100.00
2023-04-11T04:08:50.773Z,100.00
2023-04-11T04:09:55.030Z,100.00
2023-04-11T04:10:58.845Z,100.00
2023-04-11T04:12:02.788Z,100.00
2023-04-11T04:13:06.537Z,100.00
2023-04-11T04:14:10.737Z,100.00
2023-04-11T04:15:16.228Z,100.00
2023-04-11T04:16:21.687Z,100.00
2023-04-11T04:17:25.622Z,100.00
2023-04-11T04:18:29.386Z,100.00
2023-04-11T04:19:36.880Z,100.00
2023-04-11T04:20:42.483Z,100.00
2023-04-11T04:21:46.858Z,100.00
2023-04-11T04:22:53.546Z,100.00
2023-04-11T04:23:57.716Z,100.00
2023-04-11T04:25:02.391Z,100.00
2023-04-11T04:26:06.980Z,100.00
2023-04-11T04:27:11.457Z,100.00
2023-04-11T04:28:20.647Z,100.00
2023-04-11T04:29:29.975Z,100.00
2023-04-11T04:30:38.338Z,100.00
2023-04-11T04:31:43.544Z,100.00
2023-04-11T04:32:47.683Z,100.00
2023-04-11T04:33:52.183Z,100.00
2023-04-11T04:34:56.329Z,100.00
2023-04-11T04:36:00.565Z,100.00
2023-04-11T04:37:05.247Z,100.00
2023-04-11T04:38:09.840Z,100.00
2023-04-11T04:39:18.171Z,100.00
2023-04-11T04:40:22.793Z,100.00
2023-04-11T04:41:34.126Z,100.00
2023-04-11T04:42:41.536Z,100.00
2023-04-11T04:43:46.399Z,100.00
2023-04-11T04:44:51.862Z,100.00
2023-04-11T04:45:56.577Z,100.00
2023-04-11T04:47:00.807Z,100.00
2023-04-11T04:48:05.239Z,100.00
2023-04-11T04:49:09.747Z,100.00
2023-04-11T04:50:13.790Z,100.00
2023-04-11T04:51:17.738Z,100.00
2023-04-11T04:52:22.078Z,100.00
2023-04-11T04:53:26.228Z,100.00
2023-04-11T04:54:31.550Z,100.00
2023-04-11T04:55:36.078Z,100.00
2023-04-11T04:56:40.026Z,100.00
2023-04-11T04:57:43.537Z,100.00
2023-04-11T04:58:47.552Z,100.00
2023-04-11T04:59:51.466Z,100.00
2023-04-11T05:00:58.099Z,100.00
2023-04-11T05:02:02.175Z,100.00
2023-04-11T05:03:09.000Z,100.00
2023-04-11T05:04:13.192Z,100.00
2023-04-11T05:05:17.641Z,100.00
2023-04-11T05:06:21.544Z,100.00
2023-04-11T05:07:26.559Z,100.00
2023-04-11T05:08:30.461Z,100.00
2023-04-11T05:09:34.259Z,100.00
2023-04-11T05:10:38.224Z,100.00
2023-04-11T05:11:42.992Z,100.00
2023-04-11T05:12:46.928Z,100.00
2023-04-11T05:13:51.044Z,100.00
2023-04-11T05:14:57.001Z,100.00
2023-04-11T05:16:02.413Z,100.00
2023-04-11T05:17:06.435Z,100.00
2023-04-11T05:18:10.481Z,100.00
2023-04-11T05:19:14.402Z,100.00
2023-04-11T05:20:20.153Z,100.00
2023-04-11T05:21:24.152Z,100.00
2023-04-11T05:22:27.899Z,100.00
2023-04-11T05:23:32.204Z,100.00
2023-04-11T05:24:36.263Z,100.00
2023-04-11T05:25:40.428Z,100.00
2023-04-11T05:26:45.015Z,100.00
2023-04-11T05:27:48.980Z,100.00
2023-04-11T05:28:52.912Z,100.00
2023-04-11T05:29:56.608Z,100.00
2023-04-11T05:31:02.551Z,100.00
2023-04-11T05:32:06.469Z,100.00
2023-04-11T05:33:13.183Z,100.00
2023-04-11T05:34:17.145Z,100.00
2023-04-11T05:35:24.782Z,100.00
2023-04-11T05:36:29.842Z,100.00
2023-04-11T05:37:35.065Z,100.00
2023-04-11T05:38:39.388Z,100.00
2023-04-11T05:39:44.271Z,100.00
2023-04-11T05:40:48.302Z,100.00
2023-04-11T05:41:53.432Z,100.00
2023-04-11T05:42:58.008Z,100.00
2023-04-11T05:44:02.429Z,100.00
2023-04-11T05:45:07.644Z,100.00
2023-04-11T05:46:12.857Z,100.00
2023-04-11T05:47:19.341Z,100.00
2023-04-11T05:48:24.130Z,100.00
2023-04-11T05:49:31.434Z,100.00
2023-04-11T05:50:36.153Z,100.00
2023-04-11T05:51:39.886Z,100.00
2023-04-11T05:52:43.622Z,100.00
2023-04-11T05:53:48.665Z,100.00
2023-04-11T05:54:52.502Z,100.00
2023-04-11T05:55:56.253Z,100.00
2023-04-11T05:57:00.180Z,100.00
2023-04-11T05:58:04.666Z,100.00
2023-04-11T05:59:08.569Z,100.00
2023-04-11T06:00:14.556Z,100.00
2023-04-11T06:01:22.549Z,100.00
2023-04-11T06:02:28.918Z,100.00
2023-04-11T06:03:32.971Z,100.00
2023-04-11T06:04:37.015Z,100.00
2023-04-11T06:05:41.288Z,100.00
2023-04-11T06:06:46.226Z,100.00
2023-04-11T06:07:50.368Z,100.00
2023-04-11T06:08:54.696Z,100.00
2023-04-11T06:09:59.114Z,100.00
2023-04-11T06:11:03.113Z,100.00
2023-04-11T06:12:08.229Z,100.00
2023-04-11T06:13:12.555Z,100.00
2023-04-11T06:14:18.499Z,100.00
2023-04-11T06:15:25.267Z,100.00
2023-04-11T06:16:32.756Z,100.00
2023-04-11T06:17:37.088Z,100.00
2023-04-11T06:18:41.644Z,100.00
2023-04-11T06:19:45.668Z,100.00
2023-04-11T06:20:49.845Z,100.00
2023-04-11T06:21:53.525Z,100.00
2023-04-11T06:22:57.350Z,100.00
2023-04-11T06:24:09.723Z,100.00
2023-04-11T06:25:19.037Z,100.00
2023-04-11T06:26:22.804Z,100.00
2023-04-11T06:27:27.429Z,100.00
2023-04-11T06:28:31.782Z,100.00
2023-04-11T06:29:38.771Z,100.00
2023-04-11T06:30:43.318Z,100.00
2023-04-11T06:31:47.650Z,100.00
2023-04-11T06:32:52.795Z,100.00
2023-04-11T06:33:57.364Z,100.00
2023-04-11T06:35:01.774Z,100.00
2023-04-11T06:36:06.346Z,100.00
2023-04-11T06:37:11.351Z,100.00
2023-04-11T06:38:15.575Z,100.00
2023-04-11T06:39:20.899Z,100.00
2023-04-11T06:40:24.896Z,100.00
2023-04-11T06:41:29.436Z,99.83
2023-04-11T06:42:33.994Z,99.51
2023-04-11T06:43:38.096Z,98.01
2023-04-11T06:44:42.146Z,98.03
2023-04-11T06:45:47.769Z,97.56
2023-04-11T06:46:52.916Z,95.72
2023-04-11T06:48:01.366Z,97.03
2023-04-11T06:49:07.370Z,97.16
2023-04-11T06:50:12.468Z,94.61
2023-04-11T06:51:17.534Z,87.32
2023-04-11T06:52:21.738Z,86.28
2023-04-11T06:53:26.463Z,90.12
2023-04-11T06:54:30.469Z,87.11
2023-04-11T06:55:34.378Z,84.09
2023-04-11T06:56:38.349Z,83.32
2023-04-11T06:57:44.266Z,80.99
2023-04-11T06:58:48.310Z,77.43
2023-04-11T06:59:53.427Z,78.97
2023-04-11T07:00:57.742Z,77.12
2023-04-11T07:02:01.705Z,76.16
2023-04-11T07:03:09.475Z,72.17
2023-04-11T07:04:14.943Z,72.31
2023-04-11T07:05:19.509Z,70.82
2023-04-11T07:06:23.812Z,69.31
2023-04-11T07:07:28.118Z,67.40
2023-04-11T07:08:36.361Z,66.18
2023-04-11T07:09:41.253Z,64.84
2023-04-11T07:10:46.030Z,64.66
2023-04-11T07:11:50.975Z,64.02
2023-04-11T07:12:55.805Z,63.69
2023-04-11T07:14:01.247Z,62.53
2023-04-11T07:15:06.656Z,62.45
2023-04-11T07:16:11.516Z,61.94
2023-04-11T07:17:16.337Z,62.06
2023-04-11T07:18:19.913Z,59.97
2023-04-11T07:19:23.852Z,57.33
2023-04-11T07:20:28.245Z,58.76
2023-04-11T07:21:32.819Z,58.01
2023-04-11T07:22:37.100Z,58.67
2023-04-11T07:23:43.289Z,56.65
2023-04-11T07:24:51.787Z,56.77
2023-04-11T07:25:56.989Z,55.94
2023-04-11T07:27:01.990Z,56.65
2023-04-11T07:28:08.993Z,53.67
2023-04-11T07:29:14.901Z,53.97
2023-04-11T07:30:20.129Z,52.43
2023-04-11T07:31:25.274Z,51.74
2023-04-11T07:32:29.988Z,50.95
2023-04-11T07:33:34.550Z,51.26
2023-04-11T07:34:38.850Z,51.72
2023-04-11T07:35:43.969Z,51.10
2023-04-11T07:36:50.332Z,49.58
2023-04-11T07:37:54.596Z,48.81
2023-04-11T07:39:00.267Z,48.45
2023-04-11T07:40:12.144Z,47.60
2023-04-11T07:41:16.641Z,46.31
2023-04-11T07:42:21.560Z,46.21
2023-04-11T07:43:28.412Z,46.02
2023-04-11T07:44:32.344Z,45.28
2023-04-11T07:45:37.537Z,44.71
2023-04-11T07:46:41.494Z,44.71
2023-04-11T07:47:45.597Z,44.42
2023-04-11T07:48:49.344Z,44.45
2023-04-11T07:49:53.387Z,44.37
2023-04-11T07:51:07.547Z,44.06
2023-04-11T07:52:14.064Z,44.75
2023-04-11T07:53:18.704Z,45.56
2023-04-11T07:54:25.356Z,45.78
2023-04-11T07:55:28.969Z,46.41
2023-04-11T07:56:32.829Z,47.61
2023-04-11T07:57:43.098Z,47.86
2023-04-11T07:58:48.557Z,48.39
2023-04-11T07:59:52.824Z,48.61
2023-04-11T08:01:03.270Z,49.30
2023-04-11T08:02:08.297Z,48.60
2023-04-11T08:03:13.646Z,48.54
2023-04-11T08:04:18.319Z,48.12
2023-04-11T08:05:22.325Z,48.56
2023-04-11T08:06:27.267Z,48.63
2023-04-11T08:07:32.523Z,48.51
2023-04-11T08:08:37.168Z,48.69
2023-04-11T08:09:44.561Z,48.47
2023-04-11T08:10:52.352Z,47.63
2023-04-11T08:11:59.856Z,47.65
2023-04-11T08:13:04.078Z,47.69
2023-04-11T08:14:08.768Z,47.32
2023-04-11T08:15:13.358Z,47.67
2023-04-11T08:16:17.565Z,48.10
2023-04-11T08:17:28.636Z,49.46
2023-04-11T08:18:35.517Z,48.28
2023-04-11T08:19:40.296Z,48.69
2023-04-11T08:20:44.737Z,48.57
2023-04-11T08:21:48.993Z,48.25
2023-04-11T08:22:58.074Z,48.32
2023-04-11T08:24:04.664Z,48.66
2023-04-11T08:25:12.210Z,48.81
2023-04-11T08:26:17.704Z,48.86
2023-04-11T08:27:22.252Z,49.24
2023-04-11T08:28:26.995Z,49.25
2023-04-11T08:29:31.474Z,50.12
2023-04-11T08:30:35.789Z,50.07
2023-04-11T08:31:46.802Z,50.21
2023-04-11T08:32:51.232Z,50.74
2023-04-11T08:33:58.456Z,51.09
2023-04-11T08:35:08.323Z,51.39
2023-04-11T08:36:13.760Z,51.79
2023-04-11T08:37:19.659Z,52.37
2023-04-11T08:38:23.514Z,52.25
2023-04-11T08:39:27.472Z,52.72
2023-04-11T08:40:32.670Z,52.33
2023-04-11T08:41:38.894Z,51.44
2023-04-11T08:42:47.657Z,51.02
2023-04-11T08:43:51.648Z,51.18
2023-04-11T08:45:04.860Z,50.77
2023-04-11T08:46:09.186Z,50.33
2023-04-11T08:47:18.001Z,50.47
2023-04-11T08:48:26.384Z,49.69
2023-04-11T08:49:30.816Z,49.66
2023-04-11T08:50:40.573Z,49.62
2023-04-11T08:51:50.466Z,49.71
2023-04-11T08:53:04.458Z,49.09
2023-04-11T08:54:11.424Z,48.73
2023-04-11T08:55:17.394Z,47.96
2023-04-11T08:56:24.289Z,48.68
2023-04-11T08:57:35.176Z,48.24
2023-04-11T08:59:52.184Z,48.46
2023-04-11T09:00:56.110Z,48.56
2023-04-11T09:02:15.226Z,48.64
2023-04-11T09:03:23.136Z,48.59
2023-04-11T09:04:41.515Z,48.76
2023-04-11T09:05:49.454Z,49.47
2023-04-11T09:07:06.637Z,49.80
2023-04-11T09:08:14.044Z,50.61
2023-04-11T09:09:31.107Z,51.41
2023-04-11T09:10:37.958Z,52.62
2023-04-11T09:11:56.172Z,53.97
2023-04-11T09:13:02.409Z,54.01
2023-04-11T09:14:12.215Z,54.02
2023-04-11T09:15:22.648Z,53.77
2023-04-11T09:16:27.502Z,52.99
2023-04-11T09:17:43.501Z,52.66
2023-04-11T09:18:48.213Z,52.80
2023-04-11T09:19:52.726Z,52.66
2023-04-11T09:21:03.430Z,52.93
2023-04-11T09:22:14.946Z,53.19
2023-04-11T09:23:26.123Z,52.90
2023-04-11T09:24:34.721Z,53.67
2023-04-11T09:25:45.720Z,53.06
2023-04-11T09:26:51.435Z,53.95
2023-04-11T09:28:11.427Z,55.21
2023-04-11T09:29:57.042Z,56.28
2023-04-11T09:31:01.580Z,56.82
2023-04-11T09:32:06.377Z,56.74
2023-04-11T09:33:31.786Z,57.11
2023-04-11T09:34:41.138Z,57.22
2023-04-11T09:35:55.664Z,57.27
2023-04-11T09:36:59.748Z,57.17
2023-04-11T09:38:07.502Z,57.01
2023-04-11T09:39:20.845Z,57.03
2023-04-11T09:40:28.232Z,57.10
2023-04-11T09:41:40.935Z,57.72
2023-04-11T09:42:59.249Z,58.36
2023-04-11T09:44:05.207Z,59.01
2023-04-11T09:45:26.116Z,59.02
2023-04-11T09:46:30.020Z,58.97
2023-04-11T09:47:34.626Z,58.96
2023-04-11T09:49:48.619Z,59.18
2023-04-11T09:50:54.551Z,59.22
2023-04-11T09:52:01.328Z,59.25
2023-04-11T09:53:08.816Z,58.54
2023-04-11T09:54:22.271Z,58.74
2023-04-11T09:55:27.897Z,58.99
2023-04-11T09:56:34.902Z,58.80
2023-04-11T09:57:49.011Z,59.43
2023-04-11T09:58:57.608Z,59.06
2023-04-11T10:00:16.480Z,59.23
2023-04-11T10:01:21.522Z,59.36
2023-04-11T10:02:25.744Z,60.00
2023-04-11T10:03:38.948Z,59.22
2023-04-11T10:04:45.458Z,59.11
2023-04-11T10:05:53.339Z,59.50
2023-04-11T10:07:18.932Z,57.62
2023-04-11T10:08:47.807Z,57.17
2023-04-11T10:09:52.766Z,57.05
2023-04-11T10:11:01.307Z,56.55
2023-04-11T10:12:10.074Z,56.57
2023-04-11T10:13:45.120Z,57.47
2023-04-11T10:14:49.607Z,56.15
2023-04-11T10:16:28.996Z,55.60
2023-04-11T10:17:37.106Z,54.96
2023-04-11T10:18:56.921Z,55.12
2023-04-11T10:20:01.565Z,54.59
2023-04-11T10:21:34.940Z,54.18
2023-04-11T10:22:43.678Z,54.14
2023-04-11T10:24:17.125Z,54.48
2023-04-11T10:25:28.228Z,53.85
2023-04-11T10:26:59.004Z,53.82
2023-04-11T10:28:06.279Z,54.58
2023-04-11T10:29:41.045Z,55.21
2023-04-11T10:30:45.578Z,54.75
2023-04-11T10:32:11.139Z,54.16
2023-04-11T10:33:21.916Z,54.32
2023-04-11T10:34:27.679Z,54.28
2023-04-11T10:35:34.318Z,54.73
2023-04-11T10:37:12.631Z,55.01
2023-04-11T10:38:43.813Z,54.74
2023-04-11T10:39:53.958Z,54.83
2023-04-11T10:41:18.265Z,54.75
2023-04-11T10:42:41.289Z,54.56
2023-04-11T10:43:48.130Z,54.45
2023-04-11T10:45:26.558Z,54.02
2023-04-11T10:46:33.190Z,54.03
2023-04-11T10:47:38.775Z,53.29
2023-04-11T10:48:59.299Z,53.06
2023-04-11T10:50:26.882Z,53.88
2023-04-11T10:51:34.405Z,53.37
2023-04-11T10:52:40.283Z,52.97
2023-04-11T10:53:47.627Z,53.45
2023-04-11T10:54:54.699Z,53.23
2023-04-11T10:55:59.811Z,53.70
2023-04-11T10:57:04.932Z,53.54
2023-04-11T10:58:20.000Z,53.69
2023-04-11T10:59:37.276Z,54.56
2023-04-11T11:00:50.060Z,53.52
2023-04-11T11:02:03.835Z,53.43
2023-04-11T11:03:20.671Z,53.58
2023-04-11T11:04:45.247Z,53.52
2023-04-11T11:06:10.477Z,53.70
2023-04-11T11:07:17.114Z,54.12
2023-04-11T11:08:41.925Z,53.71
2023-04-11T11:09:51.645Z,53.62
2023-04-11T11:11:05.141Z,53.33
2023-04-11T11:12:13.145Z,53.43
2023-04-11T11:13:18.324Z,53.27
2023-04-11T11:14:31.376Z,53.86
2023-04-11T11:15:41.665Z,54.10
2023-04-11T11:16:47.576Z,53.79
2023-04-11T11:17:53.348Z,53.55
2023-04-11T11:19:00.144Z,53.57
2023-04-11T11:20:13.845Z,53.17
2023-04-11T11:21:29.139Z,53.36
2023-04-11T11:22:33.683Z,53.94
2023-04-11T11:23:38.016Z,53.01
2023-04-11T11:24:42.453Z,53.13
2023-04-11T11:25:58.168Z,53.37
2023-04-11T11:27:04.838Z,53.71
2023-04-11T11:28:10.730Z,54.00
2023-04-11T11:29:16.170Z,54.00
2023-04-11T11:30:21.399Z,53.27
2023-04-11T11:31:42.497Z,53.14
2023-04-11T11:32:46.987Z,53.41
2023-04-11T11:33:51.881Z,53.45
2023-04-11T11:35:03.503Z,53.05
2023-04-11T11:36:09.561Z,53.30
2023-04-11T11:37:15.062Z,53.20
2023-04-11T11:38:22.773Z,53.40
2023-04-11T11:39:29.439Z,53.25
2023-04-11T11:40:34.024Z,52.99
2023-04-11T11:41:42.345Z,52.94
2023-04-11T11:42:52.499Z,53.53
2023-04-11T11:43:57.555Z,53.05
2023-04-11T11:45:39.957Z,51.94
2023-04-11T11:47:07.117Z,52.01
2023-04-11T11:48:24.199Z,51.75
2023-04-11T11:49:50.480Z,52.10
2023-04-11T11:50:58.951Z,52.29
2023-04-11T11:52:03.937Z,52.25
2023-04-11T11:53:20.040Z,51.96
2023-04-11T11:54:25.173Z,52.04
2023-04-11T11:55:32.776Z,52.20
2023-04-11T11:56:39.807Z,52.19
2023-04-11T11:57:50.475Z,51.74
2023-04-11T11:58:59.763Z,51.80
2023-04-11T12:00:11.901Z,51.69
2023-04-11T12:01:17.130Z,52.63
2023-04-11T12:02:28.980Z,52.82
2023-04-11T12:03:42.925Z,52.19
2023-04-11T12:04:50.189Z,52.03
2023-04-11T12:06:00.360Z,51.91
2023-04-11T12:07:26.312Z,51.86
2023-04-11T12:08:45.782Z,51.15
2023-04-11T12:10:03.018Z,51.21
2023-04-11T12:11:15.779Z,51.28
2023-04-11T12:12:21.975Z,51.50
2023-04-11T12:13:28.777Z,51.45
2023-04-11T12:14:35.211Z,51.43
2023-04-11T12:15:56.269Z,51.01
2023-04-11T12:17:03.217Z,50.90
2023-04-11T12:18:08.259Z,51.01
2023-04-11T12:19:13.566Z,50.92
2023-04-11T12:20:22.254Z,51.00
2023-04-11T12:21:32.076Z,51.23
2023-04-11T12:22:41.023Z,50.88
2023-04-11T12:23:56.513Z,51.09
2023-04-11T12:25:14.907Z,51.17
2023-04-11T12:26:29.445Z,51.14
2023-04-11T12:27:37.492Z,51.26
2023-04-11T12:28:43.243Z,50.77
2023-04-11T12:29:50.117Z,50.37
2023-04-11T12:30:54.257Z,50.12
2023-04-11T12:32:13.698Z,49.87
2023-04-11T12:33:18.333Z,49.81
2023-04-11T12:34:24.295Z,49.94
2023-04-11T12:35:44.767Z,49.58
2023-04-11T12:36:49.507Z,49.77
2023-04-11T12:37:54.721Z,49.80
2023-04-11T12:39:00.686Z,50.09
2023-04-11T12:40:12.528Z,50.71
2023-04-11T12:42:27.345Z,50.55
2023-04-11T12:43:33.024Z,50.56
2023-04-11T12:44:37.801Z,50.24
2023-04-11T12:45:42.487Z,49.92
2023-04-11T12:46:49.340Z,50.16
2023-04-11T12:47:55.608Z,50.24
2023-04-11T12:49:01.180Z,50.30
2023-04-11T12:50:07.816Z,49.87
2023-04-11T12:51:16.739Z,49.63
2023-04-11T12:52:29.805Z,49.76
2023-04-11T12:53:37.768Z,49.61
2023-04-11T12:54:42.587Z,49.48
2023-04-11T12:55:49.003Z,49.58
2023-04-11T12:57:02.795Z,49.04
2023-04-11T12:58:09.743Z,49.36
2023-04-11T12:59:14.854Z,49.33
2023-04-11T13:00:23.460Z,49.33
2023-04-11T13:01:28.579Z,49.12
2023-04-11T13:02:42.698Z,48.69
2023-04-11T13:03:49.888Z,48.78
2023-04-11T13:04:55.284Z,48.59
2023-04-11T13:06:03.102Z,48.73
2023-04-11T13:07:10.649Z,48.92
2023-04-11T13:08:16.537Z,48.99
2023-04-11T13:09:28.869Z,49.03
2023-04-11T13:10:49.075Z,48.74
2023-04-11T13:12:04.191Z,48.65
2023-04-11T13:13:18.117Z,48.30
2023-04-11T13:14:33.696Z,48.09
2023-04-11T13:15:53.434Z,47.35
2023-04-11T13:17:23.731Z,47.95
2023-04-11T13:18:38.867Z,48.13
2023-04-11T13:19:53.990Z,48.48
2023-04-11T13:21:03.552Z,48.43
2023-04-11T13:22:10.430Z,48.18
2023-04-11T13:23:17.828Z,48.50
2023-04-11T13:24:23.004Z,48.20
2023-04-11T13:25:41.047Z,48.02
2023-04-11T13:26:47.367Z,48.52
2023-04-11T13:27:53.947Z,48.38
2023-04-11T13:29:13.479Z,48.46
2023-04-11T13:30:25.656Z,48.84
2023-04-11T13:31:32.515Z,48.32
2023-04-11T13:32:37.255Z,48.59
2023-04-11T13:33:45.833Z,48.81
2023-04-11T13:35:04.693Z,48.73
2023-04-11T13:36:34.339Z,49.14
2023-04-11T13:37:43.996Z,48.64
2023-04-11T13:39:02.279Z,48.58
2023-04-11T13:40:11.544Z,48.55
2023-04-11T13:41:34.995Z,48.42
2023-04-11T13:44:08.508Z,48.39
2023-04-11T13:45:12.532Z,48.36
2023-04-11T13:47:38.773Z,47.66
2023-04-11T13:48:47.314Z,47.68
2023-04-11T13:49:51.155Z,47.73
2023-04-11T13:51:03.637Z,47.80
2023-04-11T13:52:29.097Z,47.71
2023-04-11T13:53:45.884Z,48.01
2023-04-11T13:54:50.555Z,47.77
2023-04-11T13:55:56.296Z,47.64
2023-04-11T13:57:03.998Z,47.41
2023-04-11T13:58:14.453Z,47.41
2023-04-11T13:59:18.749Z,47.21
2023-04-11T14:00:23.876Z,47.15
2023-04-11T14:01:33.029Z,47.01
2023-04-11T14:02:42.834Z,47.22
2023-04-11T14:03:48.541Z,46.98
2023-04-11T14:04:53.692Z,46.97
2023-04-11T14:05:58.835Z,46.57
2023-04-11T14:07:03.278Z,46.47
2023-04-11T14:08:10.217Z,46.80
2023-04-11T14:09:27.002Z,47.02
2023-04-11T14:10:38.306Z,46.63
2023-04-11T14:11:42.626Z,47.04
2023-04-11T14:12:50.522Z,47.38
2023-04-11T14:13:56.656Z,47.94
2023-04-11T14:15:02.550Z,48.57
2023-04-11T14:16:09.545Z,49.52
2023-04-11T14:17:15.212Z,50.14
2023-04-11T14:18:20.732Z,50.67
2023-04-11T14:19:27.502Z,51.02
2023-04-11T14:20:36.192Z,51.40
2023-04-11T14:21:41.651Z,51.53
2023-04-11T14:22:46.664Z,51.77
2023-04-11T14:23:54.503Z,51.71
2023-04-11T14:25:00.162Z,51.94
2023-04-11T14:26:08.390Z,52.15
2023-04-11T14:27:15.747Z,52.56
2023-04-11T14:28:20.759Z,52.22
2023-04-11T14:29:26.666Z,52.28
2023-04-11T14:30:32.208Z,52.73
2023-04-11T14:31:52.203Z,52.86
2023-04-11T14:33:13.744Z,52.97
2023-04-11T14:34:41.752Z,53.21